sensor_id;sensor_type;location;lat;lon;timestamp;P1;durP1;ratioP1;P2;durP2;ratioP2
12332;SDS011;6232;48.094;11.288;2023-05-16T00:01:36;5.90;;;5.30;;
12332;SDS011;6232;48.094;11.288;2023-05-16T00:04:22;6.57;;;5.97;;
12332;SDS011;6232;48.094;11.288;2023-05-16T00:07:08;7.43;;;5.80;;
12332;SDS011;6232;48.094;11.288;2023-05-16T00:09:53;7.27;;;5.80;;
12332;SDS011;6232;48.094;11.288;2023-05-16T00:12:39;8.40;;;5.40;;
12332;SDS011;6232;48.094;11.288;2023-05-16T00:15:24;5.87;;;5.37;;
12332;SDS011;6232;48.094;11.288;2023-05-16T00:18:10;5.80;;;5.20;;
12332;SDS011;6232;48.094;11.288;2023-05-16T00:20:59;5.93;;;5.30;;
12332;SDS011;6232;48.094;11.288;2023-05-16T00:23:45;7.53;;;5.77;;
12332;SDS011;6232;48.094;11.288;2023-05-16T00:26:31;7.07;;;6.37;;
12332;SDS011;6232;48.094;11.288;2023-05-16T00:29:16;6.80;;;6.10;;
12332;SDS011;6232;48.094;11.288;2023-05-16T00:32:02;6.43;;;5.80;;
12332;SDS011;6232;48.094;11.288;2023-05-16T00:34:48;6.60;;;5.67;;
12332;SDS011;6232;48.094;11.288;2023-05-16T00:37:33;7.00;;;5.50;;
12332;SDS011;6232;48.094;11.288;2023-05-16T00:40:19;6.37;;;5.87;;
12332;SDS011;6232;48.094;11.288;2023-05-16T00:43:05;6.60;;;6.00;;
12332;SDS011;6232;48.094;11.288;2023-05-16T00:45:51;6.43;;;5.83;;
12332;SDS011;6232;48.094;11.288;2023-05-16T00:48:36;7.93;;;5.77;;
12332;SDS011;6232;48.094;11.288;2023-05-16T00:51:22;8.33;;;6.87;;
12332;SDS011;6232;48.094;11.288;2023-05-16T00:54:07;6.37;;;5.67;;
12332;SDS011;6232;48.094;11.288;2023-05-16T00:56:53;6.73;;;6.03;;
12332;SDS011;6232;48.094;11.288;2023-05-16T00:59:39;6.57;;;5.97;;
12332;SDS011;6232;48.094;11.288;2023-05-16T01:02:25;6.90;;;6.27;;
12332;SDS011;6232;48.094;11.288;2023-05-16T01:05:13;7.80;;;6.33;;
12332;SDS011;6232;48.094;11.288;2023-05-16T01:07:59;7.03;;;5.93;;
12332;SDS011;6232;48.094;11.288;2023-05-16T01:16:39;9.37;;;7.80;;
12332;SDS011;6232;48.094;11.288;2023-05-16T01:25:16;6.97;;;6.20;;
12332;SDS011;6232;48.094;11.288;2023-05-16T01:28:06;8.63;;;6.07;;
12332;SDS011;6232;48.094;11.288;2023-05-16T01:30:51;12.10;;;6.77;;
12332;SDS011;6232;48.094;11.288;2023-05-16T01:33:37;8.07;;;6.60;;
12332;SDS011;6232;48.094;11.288;2023-05-16T01:39:36;9.87;;;6.63;;
12332;SDS011;6232;48.094;11.288;2023-05-16T01:42:26;10.03;;;7.30;;
12332;SDS011;6232;48.094;11.288;2023-05-16T01:45:19;8.90;;;6.40;;
12332;SDS011;6232;48.094;11.288;2023-05-16T01:48:07;8.60;;;6.60;;
12332;SDS011;6232;48.094;11.288;2023-05-16T01:50:54;7.87;;;6.50;;
12332;SDS011;6232;48.094;11.288;2023-05-16T01:53:41;7.50;;;6.50;;
12332;SDS011;6232;48.094;11.288;2023-05-16T01:56:29;8.03;;;6.23;;
12332;SDS011;6232;48.094;11.288;2023-05-16T01:59:16;8.27;;;7.27;;
12332;SDS011;6232;48.094;11.288;2023-05-16T02:02:02;7.27;;;6.57;;
12332;SDS011;6232;48.094;11.288;2023-05-16T02:04:47;11.40;;;6.40;;
12332;SDS011;6232;48.094;11.288;2023-05-16T02:07:33;8.30;;;7.27;;
12332;SDS011;6232;48.094;11.288;2023-05-16T02:10:19;9.03;;;7.27;;
12332;SDS011;6232;48.094;11.288;2023-05-16T02:13:04;9.93;;;6.27;;
12332;SDS011;6232;48.094;11.288;2023-05-16T02:15:50;10.73;;;7.37;;
12332;SDS011;6232;48.094;11.288;2023-05-16T02:18:35;7.23;;;6.23;;
12332;SDS011;6232;48.094;11.288;2023-05-16T02:21:21;8.27;;;7.00;;
12332;SDS011;6232;48.094;11.288;2023-05-16T02:24:06;10.87;;;6.53;;
12332;SDS011;6232;48.094;11.288;2023-05-16T02:26:52;8.30;;;6.90;;
12332;SDS011;6232;48.094;11.288;2023-05-16T02:29:37;9.33;;;6.90;;
12332;SDS011;6232;48.094;11.288;2023-05-16T02:32:23;10.10;;;6.97;;
12332;SDS011;6232;48.094;11.288;2023-05-16T02:35:09;9.03;;;7.37;;
12332;SDS011;6232;48.094;11.288;2023-05-16T02:37:55;8.50;;;7.57;;
12332;SDS011;6232;48.094;11.288;2023-05-16T02:40:40;9.77;;;7.60;;
12332;SDS011;6232;48.094;11.288;2023-05-16T02:43:26;7.50;;;6.80;;
12332;SDS011;6232;48.094;11.288;2023-05-16T02:49:06;9.80;;;7.50;;
12332;SDS011;6232;48.094;11.288;2023-05-16T02:51:51;8.30;;;6.77;;
12332;SDS011;6232;48.094;11.288;2023-05-16T02:54:37;9.17;;;7.20;;
12332;SDS011;6232;48.094;11.288;2023-05-16T02:57:23;7.20;;;6.50;;
12332;SDS011;6232;48.094;11.288;2023-05-16T03:00:08;8.50;;;7.43;;
12332;SDS011;6232;48.094;11.288;2023-05-16T03:02:55;8.00;;;6.43;;
12332;SDS011;6232;48.094;11.288;2023-05-16T03:05:42;7.97;;;7.17;;
12332;SDS011;6232;48.094;11.288;2023-05-16T03:08:27;7.77;;;6.40;;
12332;SDS011;6232;48.094;11.288;2023-05-16T03:11:13;7.80;;;6.60;;
12332;SDS011;6232;48.094;11.288;2023-05-16T03:13:59;8.47;;;7.50;;
12332;SDS011;6232;48.094;11.288;2023-05-16T03:16:44;13.27;;;6.77;;
12332;SDS011;6232;48.094;11.288;2023-05-16T03:19:30;8.97;;;6.90;;
12332;SDS011;6232;48.094;11.288;2023-05-16T03:22:15;9.53;;;7.37;;
12332;SDS011;6232;48.094;11.288;2023-05-16T03:25:01;9.60;;;8.57;;
12332;SDS011;6232;48.094;11.288;2023-05-16T03:27:47;9.03;;;7.50;;
12332;SDS011;6232;48.094;11.288;2023-05-16T03:30:32;8.83;;;7.20;;
12332;SDS011;6232;48.094;11.288;2023-05-16T03:33:18;7.87;;;6.73;;
12332;SDS011;6232;48.094;11.288;2023-05-16T03:36:04;9.17;;;7.70;;
12332;SDS011;6232;48.094;11.288;2023-05-16T03:38:50;11.20;;;8.00;;
12332;SDS011;6232;48.094;11.288;2023-05-16T03:41:35;8.73;;;6.97;;
12332;SDS011;6232;48.094;11.288;2023-05-16T03:44:21;10.83;;;8.57;;
12332;SDS011;6232;48.094;11.288;2023-05-16T03:47:06;13.20;;;7.60;;
12332;SDS011;6232;48.094;11.288;2023-05-16T03:49:52;8.80;;;7.77;;
12332;SDS011;6232;48.094;11.288;2023-05-16T03:52:37;12.90;;;9.47;;
12332;SDS011;6232;48.094;11.288;2023-05-16T03:55:23;11.57;;;8.00;;
12332;SDS011;6232;48.094;11.288;2023-05-16T03:58:08;9.60;;;8.00;;
12332;SDS011;6232;48.094;11.288;2023-05-16T04:00:54;8.73;;;7.83;;
12332;SDS011;6232;48.094;11.288;2023-05-16T04:03:41;12.97;;;8.40;;
12332;SDS011;6232;48.094;11.288;2023-05-16T04:06:26;10.73;;;8.00;;
12332;SDS011;6232;48.094;11.288;2023-05-16T04:09:12;9.37;;;8.17;;
12332;SDS011;6232;48.094;11.288;2023-05-16T04:11:57;8.20;;;7.40;;
12332;SDS011;6232;48.094;11.288;2023-05-16T04:14:46;10.50;;;8.00;;
12332;SDS011;6232;48.094;11.288;2023-05-16T04:17:31;10.93;;;8.00;;
12332;SDS011;6232;48.094;11.288;2023-05-16T04:20:17;10.07;;;8.00;;
12332;SDS011;6232;48.094;11.288;2023-05-16T04:23:03;11.90;;;9.37;;
12332;SDS011;6232;48.094;11.288;2023-05-16T04:25:49;11.70;;;8.77;;
12332;SDS011;6232;48.094;11.288;2023-05-16T04:28:35;9.70;;;8.70;;
12332;SDS011;6232;48.094;11.288;2023-05-16T04:31:21;10.40;;;8.37;;
12332;SDS011;6232;48.094;11.288;2023-05-16T04:34:07;11.90;;;8.70;;
12332;SDS011;6232;48.094;11.288;2023-05-16T04:36:53;10.90;;;9.00;;
12332;SDS011;6232;48.094;11.288;2023-05-16T04:39:39;11.80;;;7.97;;
12332;SDS011;6232;48.094;11.288;2023-05-16T04:42:25;11.03;;;9.17;;
12332;SDS011;6232;48.094;11.288;2023-05-16T04:45:11;10.53;;;8.70;;
12332;SDS011;6232;48.094;11.288;2023-05-16T04:47:59;18.73;;;10.57;;
12332;SDS011;6232;48.094;11.288;2023-05-16T04:50:45;14.03;;;10.67;;
12332;SDS011;6232;48.094;11.288;2023-05-16T04:53:30;19.40;;;11.67;;
12332;SDS011;6232;48.094;11.288;2023-05-16T04:56:16;22.00;;;11.33;;
12332;SDS011;6232;48.094;11.288;2023-05-16T04:59:02;13.53;;;8.90;;
12332;SDS011;6232;48.094;11.288;2023-05-16T05:01:48;12.00;;;9.93;;
12332;SDS011;6232;48.094;11.288;2023-05-16T05:04:34;13.23;;;10.00;;
12332;SDS011;6232;48.094;11.288;2023-05-16T05:07:19;14.77;;;9.33;;
12332;SDS011;6232;48.094;11.288;2023-05-16T05:10:05;13.00;;;8.83;;
12332;SDS011;6232;48.094;11.288;2023-05-16T05:12:52;12.83;;;9.70;;
12332;SDS011;6232;48.094;11.288;2023-05-16T05:15:37;21.93;;;11.53;;
12332;SDS011;6232;48.094;11.288;2023-05-16T05:18:23;19.43;;;11.37;;
12332;SDS011;6232;48.094;11.288;2023-05-16T05:21:08;15.50;;;9.63;;
12332;SDS011;6232;48.094;11.288;2023-05-16T05:23:54;10.37;;;8.87;;
12332;SDS011;6232;48.094;11.288;2023-05-16T05:26:39;16.90;;;10.03;;
12332;SDS011;6232;48.094;11.288;2023-05-16T05:29:25;12.33;;;9.10;;
12332;SDS011;6232;48.094;11.288;2023-05-16T05:32:11;13.00;;;9.87;;
12332;SDS011;6232;48.094;11.288;2023-05-16T05:34:57;11.47;;;9.20;;
12332;SDS011;6232;48.094;11.288;2023-05-16T05:37:42;10.67;;;8.43;;
12332;SDS011;6232;48.094;11.288;2023-05-16T05:40:28;10.47;;;8.50;;
12332;SDS011;6232;48.094;11.288;2023-05-16T05:43:13;21.87;;;8.40;;
12332;SDS011;6232;48.094;11.288;2023-05-16T05:45:59;11.17;;;9.07;;
12332;SDS011;6232;48.094;11.288;2023-05-16T05:48:45;12.73;;;8.33;;
12332;SDS011;6232;48.094;11.288;2023-05-16T05:51:30;12.83;;;8.33;;
12332;SDS011;6232;48.094;11.288;2023-05-16T05:54:19;12.03;;;8.93;;
12332;SDS011;6232;48.094;11.288;2023-05-16T05:57:05;7.93;;;6.90;;
12332;SDS011;6232;48.094;11.288;2023-05-16T05:59:50;13.00;;;9.73;;
12332;SDS011;6232;48.094;11.288;2023-05-16T06:02:36;10.90;;;9.07;;
12332;SDS011;6232;48.094;11.288;2023-05-16T06:05:21;12.57;;;10.17;;
12332;SDS011;6232;48.094;11.288;2023-05-16T06:08:08;10.47;;;9.03;;
12332;SDS011;6232;48.094;11.288;2023-05-16T06:10:53;12.50;;;9.67;;
12332;SDS011;6232;48.094;11.288;2023-05-16T06:13:39;12.27;;;9.70;;
12332;SDS011;6232;48.094;11.288;2023-05-16T06:16:25;13.30;;;10.50;;
12332;SDS011;6232;48.094;11.288;2023-05-16T06:19:10;11.93;;;9.50;;
12332;SDS011;6232;48.094;11.288;2023-05-16T06:22:00;17.20;;;10.17;;
12332;SDS011;6232;48.094;11.288;2023-05-16T06:24:45;11.27;;;9.00;;
12332;SDS011;6232;48.094;11.288;2023-05-16T06:27:31;13.60;;;10.00;;
12332;SDS011;6232;48.094;11.288;2023-05-16T06:30:16;12.70;;;9.97;;
12332;SDS011;6232;48.094;11.288;2023-05-16T06:33:02;13.80;;;9.90;;
12332;SDS011;6232;48.094;11.288;2023-05-16T06:35:47;12.13;;;8.53;;
12332;SDS011;6232;48.094;11.288;2023-05-16T06:38:33;10.57;;;9.10;;
12332;SDS011;6232;48.094;11.288;2023-05-16T06:41:18;13.83;;;9.40;;
12332;SDS011;6232;48.094;11.288;2023-05-16T06:44:04;14.10;;;9.70;;
12332;SDS011;6232;48.094;11.288;2023-05-16T06:46:49;13.07;;;9.70;;
12332;SDS011;6232;48.094;11.288;2023-05-16T06:49:35;12.43;;;9.53;;
12332;SDS011;6232;48.094;11.288;2023-05-16T06:52:21;13.53;;;10.10;;
12332;SDS011;6232;48.094;11.288;2023-05-16T06:55:06;13.80;;;9.10;;
12332;SDS011;6232;48.094;11.288;2023-05-16T06:57:52;11.93;;;9.17;;
12332;SDS011;6232;48.094;11.288;2023-05-16T07:00:38;14.27;;;9.90;;
12332;SDS011;6232;48.094;11.288;2023-05-16T07:03:23;11.20;;;10.00;;
12332;SDS011;6232;48.094;11.288;2023-05-16T07:06:09;12.97;;;9.20;;
12332;SDS011;6232;48.094;11.288;2023-05-16T07:08:54;13.07;;;9.30;;
12332;SDS011;6232;48.094;11.288;2023-05-16T07:11:40;12.27;;;9.17;;
12332;SDS011;6232;48.094;11.288;2023-05-16T07:14:26;21.63;;;9.77;;
12332;SDS011;6232;48.094;11.288;2023-05-16T07:17:12;11.67;;;9.60;;
12332;SDS011;6232;48.094;11.288;2023-05-16T07:19:57;12.00;;;10.00;;
12332;SDS011;6232;48.094;11.288;2023-05-16T07:22:43;14.53;;;9.50;;
12332;SDS011;6232;48.094;11.288;2023-05-16T07:25:28;12.07;;;9.30;;
12332;SDS011;6232;48.094;11.288;2023-05-16T07:28:14;13.30;;;10.10;;
12332;SDS011;6232;48.094;11.288;2023-05-16T07:30:59;10.30;;;9.30;;
12332;SDS011;6232;48.094;11.288;2023-05-16T07:33:45;10.97;;;9.07;;
12332;SDS011;6232;48.094;11.288;2023-05-16T07:36:33;15.00;;;8.43;;
12332;SDS011;6232;48.094;11.288;2023-05-16T07:39:19;11.93;;;9.20;;
12332;SDS011;6232;48.094;11.288;2023-05-16T07:42:08;10.83;;;9.33;;
12332;SDS011;6232;48.094;11.288;2023-05-16T07:44:53;11.43;;;10.20;;
12332;SDS011;6232;48.094;11.288;2023-05-16T07:47:39;10.27;;;8.83;;
12332;SDS011;6232;48.094;11.288;2023-05-16T07:50:24;10.87;;;9.77;;
12332;SDS011;6232;48.094;11.288;2023-05-16T07:53:10;11.87;;;10.43;;
12332;SDS011;6232;48.094;11.288;2023-05-16T07:55:56;9.83;;;8.83;;
12332;SDS011;6232;48.094;11.288;2023-05-16T07:58:41;11.30;;;10.10;;
12332;SDS011;6232;48.094;11.288;2023-05-16T08:01:27;12.30;;;10.50;;
12332;SDS011;6232;48.094;11.288;2023-05-16T08:04:12;11.73;;;10.50;;
12332;SDS011;6232;48.094;11.288;2023-05-16T08:06:58;11.50;;;9.73;;
12332;SDS011;6232;48.094;11.288;2023-05-16T08:09:44;14.93;;;10.87;;
12332;SDS011;6232;48.094;11.288;2023-05-16T08:12:29;18.03;;;12.00;;
12332;SDS011;6232;48.094;11.288;2023-05-16T08:15:15;12.70;;;10.00;;
12332;SDS011;6232;48.094;11.288;2023-05-16T08:18:00;13.77;;;11.50;;
12332;SDS011;6232;48.094;11.288;2023-05-16T08:20:46;12.57;;;11.07;;
12332;SDS011;6232;48.094;11.288;2023-05-16T08:23:32;16.60;;;12.90;;
12332;SDS011;6232;48.094;11.288;2023-05-16T08:26:17;12.27;;;10.97;;
12332;SDS011;6232;48.094;11.288;2023-05-16T08:29:03;14.63;;;12.40;;
12332;SDS011;6232;48.094;11.288;2023-05-16T08:31:49;19.80;;;12.37;;
12332;SDS011;6232;48.094;11.288;2023-05-16T08:34:34;14.87;;;12.40;;
12332;SDS011;6232;48.094;11.288;2023-05-16T08:37:20;18.10;;;13.50;;
12332;SDS011;6232;48.094;11.288;2023-05-16T08:40:07;13.93;;;12.53;;
12332;SDS011;6232;48.094;11.288;2023-05-16T08:42:53;16.57;;;14.80;;
12332;SDS011;6232;48.094;11.288;2023-05-16T08:45:39;16.57;;;14.43;;
12332;SDS011;6232;48.094;11.288;2023-05-16T08:48:25;14.63;;;12.93;;
12332;SDS011;6232;48.094;11.288;2023-05-16T08:51:12;18.47;;;14.90;;
12332;SDS011;6232;48.094;11.288;2023-05-16T08:54:01;18.77;;;15.27;;
12332;SDS011;6232;48.094;11.288;2023-05-16T08:56:47;18.07;;;15.30;;
12332;SDS011;6232;48.094;11.288;2023-05-16T08:59:34;19.40;;;15.70;;
12332;SDS011;6232;48.094;11.288;2023-05-16T09:02:20;20.70;;;16.43;;
12332;SDS011;6232;48.094;11.288;2023-05-16T09:05:10;22.03;;;14.70;;
12332;SDS011;6232;48.094;11.288;2023-05-16T09:07:56;21.40;;;16.50;;
12332;SDS011;6232;48.094;11.288;2023-05-16T09:10:41;20.37;;;16.87;;
12332;SDS011;6232;48.094;11.288;2023-05-16T09:13:27;20.40;;;17.00;;
12332;SDS011;6232;48.094;11.288;2023-05-16T09:16:14;19.23;;;16.33;;
12332;SDS011;6232;48.094;11.288;2023-05-16T09:19:00;22.57;;;17.27;;
12332;SDS011;6232;48.094;11.288;2023-05-16T09:21:46;20.43;;;16.10;;
12332;SDS011;6232;48.094;11.288;2023-05-16T09:24:31;22.30;;;18.00;;
12332;SDS011;6232;48.094;11.288;2023-05-16T09:27:17;21.80;;;17.00;;
12332;SDS011;6232;48.094;11.288;2023-05-16T09:30:02;21.70;;;18.17;;
12332;SDS011;6232;48.094;11.288;2023-05-16T09:32:50;20.00;;;17.20;;
12332;SDS011;6232;48.094;11.288;2023-05-16T09:35:36;24.83;;;17.97;;
12332;SDS011;6232;48.094;11.288;2023-05-16T09:38:21;26.13;;;17.70;;
12332;SDS011;6232;48.094;11.288;2023-05-16T09:41:08;19.43;;;17.37;;
12332;SDS011;6232;48.094;11.288;2023-05-16T09:43:54;18.40;;;16.40;;
12332;SDS011;6232;48.094;11.288;2023-05-16T09:46:39;21.50;;;17.60;;
12332;SDS011;6232;48.094;11.288;2023-05-16T09:49:25;18.40;;;16.40;;
12332;SDS011;6232;48.094;11.288;2023-05-16T09:52:11;19.10;;;15.70;;
12332;SDS011;6232;48.094;11.288;2023-05-16T09:54:57;18.80;;;16.23;;
12332;SDS011;6232;48.094;11.288;2023-05-16T09:57:42;17.90;;;14.63;;
12332;SDS011;6232;48.094;11.288;2023-05-16T10:00:29;19.77;;;15.47;;
12332;SDS011;6232;48.094;11.288;2023-05-16T10:03:15;20.63;;;16.50;;
12332;SDS011;6232;48.094;11.288;2023-05-16T10:06:01;19.43;;;17.33;;
12332;SDS011;6232;48.094;11.288;2023-05-16T10:08:47;20.20;;;17.20;;
12332;SDS011;6232;48.094;11.288;2023-05-16T10:11:32;18.53;;;16.60;;
12332;SDS011;6232;48.094;11.288;2023-05-16T10:14:18;17.73;;;15.90;;
12332;SDS011;6232;48.094;11.288;2023-05-16T10:17:07;22.87;;;17.33;;
12332;SDS011;6232;48.094;11.288;2023-05-16T10:19:56;21.20;;;17.70;;
12332;SDS011;6232;48.094;11.288;2023-05-16T10:22:42;22.87;;;16.73;;
12332;SDS011;6232;48.094;11.288;2023-05-16T10:25:31;21.83;;;19.10;;
12332;SDS011;6232;48.094;11.288;2023-05-16T10:28:18;22.90;;;19.40;;
12332;SDS011;6232;48.094;11.288;2023-05-16T10:31:03;26.20;;;19.20;;
12332;SDS011;6232;48.094;11.288;2023-05-16T10:33:50;29.00;;;19.27;;
12332;SDS011;6232;48.094;11.288;2023-05-16T10:36:35;23.60;;;18.30;;
12332;SDS011;6232;48.094;11.288;2023-05-16T10:39:21;23.90;;;19.10;;
12332;SDS011;6232;48.094;11.288;2023-05-16T10:42:07;22.20;;;18.53;;
12332;SDS011;6232;48.094;11.288;2023-05-16T10:44:53;24.83;;;19.00;;
12332;SDS011;6232;48.094;11.288;2023-05-16T10:47:40;27.00;;;18.70;;
12332;SDS011;6232;48.094;11.288;2023-05-16T10:50:34;30.00;;;21.33;;
12332;SDS011;6232;48.094;11.288;2023-05-16T10:53:21;29.63;;;19.43;;
12332;SDS011;6232;48.094;11.288;2023-05-16T10:56:07;22.90;;;17.97;;
12332;SDS011;6232;48.094;11.288;2023-05-16T10:58:53;24.70;;;20.03;;
12332;SDS011;6232;48.094;11.288;2023-05-16T11:01:39;25.77;;;19.10;;
12332;SDS011;6232;48.094;11.288;2023-05-16T11:04:44;24.00;;;18.93;;
12332;SDS011;6232;48.094;11.288;2023-05-16T11:07:33;22.23;;;19.83;;
12332;SDS011;6232;48.094;11.288;2023-05-16T11:10:19;27.70;;;19.87;;
12332;SDS011;6232;48.094;11.288;2023-05-16T11:13:06;22.90;;;19.33;;
12332;SDS011;6232;48.094;11.288;2023-05-16T11:15:52;23.23;;;18.90;;
12332;SDS011;6232;48.094;11.288;2023-05-16T11:19:04;22.47;;;19.77;;
12332;SDS011;6232;48.094;11.288;2023-05-16T11:22:10;28.90;;;19.80;;
12332;SDS011;6232;48.094;11.288;2023-05-16T11:25:03;24.10;;;18.50;;
12332;SDS011;6232;48.094;11.288;2023-05-16T11:27:49;21.63;;;18.97;;
12332;SDS011;6232;48.094;11.288;2023-05-16T11:30:35;20.77;;;18.57;;
12332;SDS011;6232;48.094;11.288;2023-05-16T11:33:21;27.00;;;19.37;;
12332;SDS011;6232;48.094;11.288;2023-05-16T11:36:07;23.17;;;19.37;;
12332;SDS011;6232;48.094;11.288;2023-05-16T11:38:52;26.27;;;19.73;;
12332;SDS011;6232;48.094;11.288;2023-05-16T11:41:38;28.87;;;19.40;;
12332;SDS011;6232;48.094;11.288;2023-05-16T11:44:24;24.93;;;18.70;;
12332;SDS011;6232;48.094;11.288;2023-05-16T11:47:10;22.13;;;18.37;;
12332;SDS011;6232;48.094;11.288;2023-05-16T11:49:56;22.33;;;19.50;;
12332;SDS011;6232;48.094;11.288;2023-05-16T11:52:43;22.53;;;18.83;;
12332;SDS011;6232;48.094;11.288;2023-05-16T11:55:29;25.97;;;18.33;;
12332;SDS011;6232;48.094;11.288;2023-05-16T11:58:15;28.13;;;20.10;;
12332;SDS011;6232;48.094;11.288;2023-05-16T12:01:02;24.63;;;18.17;;
12332;SDS011;6232;48.094;11.288;2023-05-16T12:03:55;20.97;;;17.63;;
12332;SDS011;6232;48.094;11.288;2023-05-16T12:06:42;25.40;;;17.57;;
12332;SDS011;6232;48.094;11.288;2023-05-16T12:09:28;20.10;;;17.63;;
12332;SDS011;6232;48.094;11.288;2023-05-16T12:12:14;18.87;;;16.83;;
12332;SDS011;6232;48.094;11.288;2023-05-16T12:14:59;21.20;;;17.93;;
12332;SDS011;6232;48.094;11.288;2023-05-16T12:17:45;19.30;;;17.00;;
12332;SDS011;6232;48.094;11.288;2023-05-16T12:20:31;18.87;;;15.40;;
12332;SDS011;6232;48.094;11.288;2023-05-16T12:23:17;24.57;;;16.70;;
12332;SDS011;6232;48.094;11.288;2023-05-16T12:26:03;19.93;;;16.50;;
12332;SDS011;6232;48.094;11.288;2023-05-16T12:28:52;18.83;;;16.50;;
12332;SDS011;6232;48.094;11.288;2023-05-16T12:31:58;18.80;;;16.17;;
12332;SDS011;6232;48.094;11.288;2023-05-16T12:34:51;22.20;;;18.20;;
12332;SDS011;6232;48.094;11.288;2023-05-16T12:37:37;18.03;;;15.73;;
12332;SDS011;6232;48.094;11.288;2023-05-16T12:40:37;16.93;;;15.17;;
12332;SDS011;6232;48.094;11.288;2023-05-16T12:43:24;18.93;;;16.90;;
12332;SDS011;6232;48.094;11.288;2023-05-16T12:46:10;20.07;;;16.83;;
12332;SDS011;6232;48.094;11.288;2023-05-16T12:49:00;20.63;;;16.50;;
12332;SDS011;6232;48.094;11.288;2023-05-16T12:51:47;20.17;;;15.80;;
12332;SDS011;6232;48.094;11.288;2023-05-16T12:54:34;19.23;;;16.07;;
12332;SDS011;6232;48.094;11.288;2023-05-16T12:57:23;17.80;;;15.77;;
12332;SDS011;6232;48.094;11.288;2023-05-16T13:00:13;18.50;;;15.17;;
12332;SDS011;6232;48.094;11.288;2023-05-16T13:03:01;21.17;;;15.23;;
12332;SDS011;6232;48.094;11.288;2023-05-16T13:05:49;16.37;;;14.67;;
12332;SDS011;6232;48.094;11.288;2023-05-16T13:12:28;16.13;;;14.17;;
12332;SDS011;6232;48.094;11.288;2023-05-16T13:15:14;16.70;;;14.77;;
12332;SDS011;6232;48.094;11.288;2023-05-16T13:18:00;17.20;;;14.40;;
12332;SDS011;6232;48.094;11.288;2023-05-16T13:20:45;14.97;;;12.17;;
12332;SDS011;6232;48.094;11.288;2023-05-16T13:23:34;16.60;;;13.33;;
12332;SDS011;6232;48.094;11.288;2023-05-16T13:26:19;15.13;;;13.47;;
12332;SDS011;6232;48.094;11.288;2023-05-16T13:29:06;15.77;;;14.17;;
12332;SDS011;6232;48.094;11.288;2023-05-16T13:31:53;16.90;;;14.20;;
12332;SDS011;6232;48.094;11.288;2023-05-16T13:34:39;21.97;;;13.83;;
12332;SDS011;6232;48.094;11.288;2023-05-16T13:37:25;15.10;;;12.90;;
12332;SDS011;6232;48.094;11.288;2023-05-16T13:40:10;14.40;;;11.17;;
12332;SDS011;6232;48.094;11.288;2023-05-16T13:42:56;18.30;;;13.23;;
12332;SDS011;6232;48.094;11.288;2023-05-16T13:45:45;14.20;;;12.30;;
12332;SDS011;6232;48.094;11.288;2023-05-16T13:48:33;12.70;;;10.97;;
12332;SDS011;6232;48.094;11.288;2023-05-16T13:51:19;12.60;;;10.10;;
12332;SDS011;6232;48.094;11.288;2023-05-16T13:54:05;11.40;;;10.00;;
12332;SDS011;6232;48.094;11.288;2023-05-16T13:56:51;11.53;;;10.33;;
12332;SDS011;6232;48.094;11.288;2023-05-16T13:59:36;13.40;;;10.50;;
12332;SDS011;6232;48.094;11.288;2023-05-16T14:02:22;15.00;;;9.97;;
12332;SDS011;6232;48.094;11.288;2023-05-16T14:05:10;10.90;;;9.80;;
12332;SDS011;6232;48.094;11.288;2023-05-16T14:07:55;10.83;;;9.73;;
12332;SDS011;6232;48.094;11.288;2023-05-16T14:10:41;11.47;;;10.27;;
12332;SDS011;6232;48.094;11.288;2023-05-16T14:13:26;11.93;;;9.93;;
12332;SDS011;6232;48.094;11.288;2023-05-16T14:16:12;10.70;;;9.43;;
12332;SDS011;6232;48.094;11.288;2023-05-16T14:18:58;10.57;;;9.17;;
12332;SDS011;6232;48.094;11.288;2023-05-16T14:21:43;11.20;;;10.10;;
12332;SDS011;6232;48.094;11.288;2023-05-16T14:24:29;11.67;;;10.40;;
12332;SDS011;6232;48.094;11.288;2023-05-16T14:27:14;12.83;;;9.70;;
12332;SDS011;6232;48.094;11.288;2023-05-16T14:30:01;11.20;;;9.80;;
12332;SDS011;6232;48.094;11.288;2023-05-16T14:32:47;13.63;;;11.67;;
12332;SDS011;6232;48.094;11.288;2023-05-16T14:35:32;12.53;;;9.97;;
12332;SDS011;6232;48.094;11.288;2023-05-16T14:38:18;11.50;;;10.10;;
12332;SDS011;6232;48.094;11.288;2023-05-16T14:41:04;16.13;;;11.00;;
12332;SDS011;6232;48.094;11.288;2023-05-16T14:43:53;11.40;;;9.93;;
12332;SDS011;6232;48.094;11.288;2023-05-16T14:46:51;11.20;;;9.10;;
12332;SDS011;6232;48.094;11.288;2023-05-16T14:49:40;14.30;;;10.87;;
12332;SDS011;6232;48.094;11.288;2023-05-16T14:52:27;16.70;;;10.17;;
12332;SDS011;6232;48.094;11.288;2023-05-16T14:55:35;10.83;;;9.60;;
12332;SDS011;6232;48.094;11.288;2023-05-16T14:58:22;12.50;;;9.97;;
12332;SDS011;6232;48.094;11.288;2023-05-16T15:01:08;12.50;;;11.23;;
12332;SDS011;6232;48.094;11.288;2023-05-16T15:03:59;13.50;;;10.87;;
12332;SDS011;6232;48.094;11.288;2023-05-16T15:06:46;11.60;;;10.40;;
12332;SDS011;6232;48.094;11.288;2023-05-16T15:09:32;10.70;;;9.03;;
12332;SDS011;6232;48.094;11.288;2023-05-16T15:12:19;11.97;;;9.10;;
12332;SDS011;6232;48.094;11.288;2023-05-16T15:15:43;10.67;;;9.57;;
12332;SDS011;6232;48.094;11.288;2023-05-16T15:18:49;12.67;;;9.23;;
12332;SDS011;6232;48.094;11.288;2023-05-16T15:21:54;14.53;;;9.47;;
12332;SDS011;6232;48.094;11.288;2023-05-16T15:24:40;10.63;;;9.50;;
12332;SDS011;6232;48.094;11.288;2023-05-16T15:27:25;12.83;;;9.83;;
12332;SDS011;6232;48.094;11.288;2023-05-16T15:30:11;10.90;;;9.20;;
12332;SDS011;6232;48.094;11.288;2023-05-16T15:32:57;10.33;;;9.33;;
12332;SDS011;6232;48.094;11.288;2023-05-16T15:35:42;10.67;;;8.30;;
12332;SDS011;6232;48.094;11.288;2023-05-16T15:38:28;11.83;;;9.83;;
12332;SDS011;6232;48.094;11.288;2023-05-16T15:41:14;10.30;;;9.10;;
12332;SDS011;6232;48.094;11.288;2023-05-16T15:44:00;10.00;;;9.03;;
12332;SDS011;6232;48.094;11.288;2023-05-16T15:46:46;9.90;;;8.90;;
12332;SDS011;6232;48.094;11.288;2023-05-16T15:49:31;11.80;;;9.10;;
12332;SDS011;6232;48.094;11.288;2023-05-16T15:52:17;13.23;;;9.40;;
12332;SDS011;6232;48.094;11.288;2023-05-16T15:55:02;11.13;;;9.00;;
12332;SDS011;6232;48.094;11.288;2023-05-16T15:57:48;9.70;;;8.70;;
12332;SDS011;6232;48.094;11.288;2023-05-16T16:00:33;10.43;;;9.40;;
12332;SDS011;6232;48.094;11.288;2023-05-16T16:03:20;12.13;;;8.30;;
12332;SDS011;6232;48.094;11.288;2023-05-16T16:06:05;10.43;;;9.37;;
12332;SDS011;6232;48.094;11.288;2023-05-16T16:08:51;10.90;;;9.77;;
12332;SDS011;6232;48.094;11.288;2023-05-16T16:11:36;11.33;;;10.00;;
12332;SDS011;6232;48.094;11.288;2023-05-16T16:14:23;12.97;;;10.77;;
12332;SDS011;6232;48.094;11.288;2023-05-16T16:17:08;12.10;;;10.80;;
12332;SDS011;6232;48.094;11.288;2023-05-16T16:19:54;12.70;;;11.40;;
12332;SDS011;6232;48.094;11.288;2023-05-16T16:22:40;12.87;;;11.57;;
12332;SDS011;6232;48.094;11.288;2023-05-16T16:25:25;12.80;;;10.50;;
12332;SDS011;6232;48.094;11.288;2023-05-16T16:28:11;12.70;;;11.00;;
12332;SDS011;6232;48.094;11.288;2023-05-16T16:30:56;12.63;;;11.30;;
12332;SDS011;6232;48.094;11.288;2023-05-16T16:33:42;14.43;;;11.30;;
12332;SDS011;6232;48.094;11.288;2023-05-16T16:36:27;12.17;;;10.90;;
12332;SDS011;6232;48.094;11.288;2023-05-16T16:39:13;14.17;;;11.97;;
12332;SDS011;6232;48.094;11.288;2023-05-16T16:41:58;18.07;;;11.57;;
12332;SDS011;6232;48.094;11.288;2023-05-16T16:44:44;15.33;;;12.83;;
12332;SDS011;6232;48.094;11.288;2023-05-16T16:47:30;16.40;;;12.77;;